Time;durP1;ratioP1;P1;durP2;ratioP2;P2;SDS_P1;SDS_P2;PMS_P1;PMS_P2;Temp;Humidity;BMP_temperature;BMP_pressure;BME280_temperature;BME280_humidity;BME280_pressure;Samples;Min_cycle;Max_cycle;Signal;HPM_P1;HPM_P2
2023/08/01 00:02:26;;;;;;;3.15;1.80;;;25.80;39.40;;;;;;6111885;29;20036;-78
2023/08/01 00:05:27;;;;;;;2.50;1.38;;;25.80;39.50;;;;;;6129399;29;20027;-78
2023/08/01 00:08:28;;;;;;;4.22;1.83;;;25.80;39.60;;;;;;6129112;29;20064;-77
2023/08/01 00:11:28;;;;;;;3.85;1.73;;;25.80;39.70;;;;;;6110747;29;20066;-77
2023/08/01 00:14:29;;;;;;;2.42;1.58;;;25.70;39.60;;;;;;6128947;29;20076;-78
2023/08/01 00:17:30;;;;;;;7.32;2.00;;;25.70;39.60;;;;;;6111969;29;20151;-78
2023/08/01 00:20:31;;;;;;;3.70;1.85;;;25.70;39.70;;;;;;6129604;29;20032;-78
2023/08/01 00:23:32;;;;;;;6.30;1.80;;;25.70;39.80;;;;;;6117648;29;20028;-77
2023/08/01 00:26:32;;;;;;;3.83;1.58;;;25.70;39.80;;;;;;6096901;29;20458;-77
2023/08/01 00:29:33;;;;;;;5.22;1.80;;;25.70;39.90;;;;;;6095005;29;20495;-77
2023/08/01 00:32:35;;;;;;;3.05;1.45;;;25.60;39.90;;;;;;6128753;29;20496;-78
2023/08/01 00:35:35;;;;;;;2.35;1.55;;;25.60;39.90;;;;;;6102632;29;20188;-79
2023/08/01 00:38:37;;;;;;;2.90;1.77;;;25.60;40.00;;;;;;6103417;29;20151;-77
2023/08/01 00:41:38;;;;;;;5.03;2.47;;;25.60;40.50;;;;;;6105511;29;20086;-78
2023/08/01 00:44:39;;;;;;;4.10;1.50;;;25.60;40.20;;;;;;6109945;29;20043;-77
2023/08/01 00:47:40;;;;;;;5.70;2.35;;;25.50;40.20;;;;;;6110744;29;20402;-78
2023/08/01 00:50:41;;;;;;;5.13;1.60;;;25.50;40.20;;;;;;6111826;29;20059;-77
2023/08/01 00:53:42;;;;;;;4.20;1.75;;;25.50;40.50;;;;;;6110683;29;20377;-78
2023/08/01 00:56:44;;;;;;;2.17;1.30;;;25.50;40.60;;;;;;6127676;29;20357;-78
2023/08/01 00:59:45;;;;;;;4.20;1.92;;;25.40;40.80;;;;;;6110051;29;20066;-77
2023/08/01 01:02:46;;;;;;;4.65;1.77;;;25.40;40.90;;;;;;6109870;29;20040;-77
2023/08/01 01:06:00;;;;;;;2.97;1.65;;;25.40;40.90;;;;;;6127227;29;20028;-77
2023/08/01 01:09:04;;;;;;;2.88;1.75;;;25.40;41.20;;;;;;6110161;29;20066;-78
2023/08/01 01:12:07;;;;;;;3.75;1.85;;;25.40;41.30;;;;;;6127535;29;20035;-77
2023/08/01 01:15:08;;;;;;;3.13;1.58;;;25.30;41.50;;;;;;6128209;29;20031;-78
2023/08/01 01:18:09;;;;;;;2.55;1.55;;;25.30;41.70;;;;;;6127799;29;20046;-77
2023/08/01 01:21:10;;;;;;;2.28;1.55;;;25.30;41.80;;;;;;6103873;29;20469;-79
2023/08/01 01:24:13;;;;;;;3.42;1.90;;;25.20;41.90;;;;;;6110555;29;20050;-77
2023/08/01 01:27:16;;;;;;;5.35;1.77;;;25.20;42.00;;;;;;6109451;29;20038;-78
2023/08/01 01:30:18;;;;;;;5.63;2.20;;;25.20;42.20;;;;;;6110000;29;20035;-76
2023/08/01 01:33:19;;;;;;;6.57;2.00;;;25.10;42.10;;;;;;6110826;29;20117;-77
2023/08/01 01:36:20;;;;;;;4.43;1.73;;;25.10;42.60;;;;;;6112740;29;20133;-78
2023/08/01 01:39:21;;;;;;;3.58;1.92;;;25.00;41.90;;;;;;6111294;29;20049;-77
2023/08/01 01:42:21;;;;;;;2.88;1.45;;;25.00;41.90;;;;;;6110632;29;20153;-77
2023/08/01 01:45:23;;;;;;;2.55;1.70;;;25.00;42.00;;;;;;6128540;29;20032;-78
2023/08/01 01:48:24;;;;;;;3.47;1.80;;;24.90;42.10;;;;;;6128988;29;20062;-78
2023/08/01 01:51:31;;;;;;;3.42;1.80;;;24.90;42.30;;;;;;6110566;29;20122;-77
2023/08/01 01:54:31;;;;;;;5.22;1.95;;;24.90;42.60;;;;;;6109962;29;20027;-78
2023/08/01 01:57:33;;;;;;;2.38;1.65;;;24.80;42.60;;;;;;6109881;29;20066;-78
2023/08/01 02:00:33;;;;;;;3.72;1.80;;;24.80;42.70;;;;;;6110596;29;20035;-77
2023/08/01 02:03:35;;;;;;;4.20;1.85;;;24.70;42.70;;;;;;6127186;29;20071;-77
2023/08/01 02:06:36;;;;;;;5.07;2.28;;;24.70;42.80;;;;;;6126024;29;20051;-78
2023/08/01 02:09:37;;;;;;;4.00;1.65;;;24.70;42.90;;;;;;6110171;29;20028;-79
2023/08/01 02:12:38;;;;;;;3.55;1.50;;;24.60;43.20;;;;;;6110113;29;20034;-78
2023/08/01 02:15:39;;;;;;;7.03;2.08;;;24.50;43.40;;;;;;6126166;29;20046;-78
2023/08/01 02:18:39;;;;;;;3.90;2.03;;;24.50;43.70;;;;;;6110549;29;20039;-77
2023/08/01 02:21:40;;;;;;;4.38;2.20;;;24.40;43.80;;;;;;6126492;29;20032;-77
2023/08/01 02:24:41;;;;;;;3.67;1.65;;;24.40;43.90;;;;;;6107570;29;20055;-77
2023/08/01 02:27:42;;;;;;;6.55;1.67;;;24.30;44.00;;;;;;6107404;29;20401;-77
2023/08/01 02:30:44;;;;;;;5.75;1.85;;;24.30;44.10;;;;;;6109236;29;20039;-77
2023/08/01 02:33:44;;;;;;;4.35;1.98;;;24.30;44.30;;;;;;6093990;29;20063;-77
2023/08/01 02:36:45;;;;;;;9.05;1.55;;;24.20;44.30;;;;;;6108640;29;20043;-78
2023/08/01 02:39:46;;;;;;;3.72;1.95;;;24.20;44.30;;;;;;6108583;29;20039;-79
2023/08/01 02:42:47;;;;;;;6.13;2.05;;;24.20;44.40;;;;;;6125588;29;20046;-76
2023/08/01 02:45:48;;;;;;;3.75;1.75;;;24.10;44.40;;;;;;6108150;29;20115;-79
2023/08/01 02:48:49;;;;;;;3.70;1.85;;;24.10;44.60;;;;;;6108279;29;20110;-77
2023/08/01 02:51:49;;;;;;;3.85;1.88;;;24.10;44.50;;;;;;6090952;29;20078;-77
2023/08/01 02:54:50;;;;;;;4.45;1.90;;;24.10;44.60;;;;;;6125600;29;20499;-77
2023/08/01 02:57:51;;;;;;;4.68;2.08;;;24.10;44.60;;;;;;6121713;29;20090;-77
2023/08/01 03:00:52;;;;;;;4.38;2.03;;;24.10;44.60;;;;;;6120095;29;20520;-77
2023/08/01 03:03:52;;;;;;;4.40;1.67;;;24.10;44.60;;;;;;6121169;29;20028;-76
2023/08/01 03:06:53;;;;;;;8.48;2.20;;;24.10;44.50;;;;;;6104790;29;20024;-77
2023/08/01 03:09:55;;;;;;;2.28;1.02;;;24.10;44.70;;;;;;6106852;29;20081;-77
2023/08/01 03:12:56;;;;;;;8.10;1.90;;;24.10;44.80;;;;;;6124354;29;20039;-76
2023/08/01 03:15:56;;;;;;;5.45;2.30;;;24.00;44.20;;;;;;6106902;29;20043;-76
2023/08/01 03:18:59;;;;;;;4.07;2.53;;;24.00;44.70;;;;;;6107275;29;20110;-77
2023/08/01 03:22:00;;;;;;;4.53;1.75;;;24.00;44.90;;;;;;6106004;29;20042;-77
2023/08/01 03:25:03;;;;;;;3.65;1.33;;;24.00;45.10;;;;;;6107184;29;20043;-75
2023/08/01 03:28:05;;;;;;;2.28;1.65;;;23.90;45.10;;;;;;6091125;29;20123;-77
2023/08/01 03:31:05;;;;;;;3.63;1.73;;;23.90;45.20;;;;;;6103224;29;20476;-78
2023/08/01 03:34:08;;;;;;;2.83;1.77;;;23.90;45.20;;;;;;6088843;29;20103;-78
2023/08/01 03:37:10;;;;;;;3.67;1.35;;;23.90;45.10;;;;;;6089143;29;20096;-77
2023/08/01 03:40:12;;;;;;;7.93;2.53;;;23.90;45.10;;;;;;6090579;29;20104;-78
2023/08/01 03:43:14;;;;;;;4.38;1.58;;;23.90;45.10;;;;;;6105003;29;20031;-78
2023/08/01 03:46:14;;;;;;;3.63;1.63;;;24.00;45.10;;;;;;6112843;29;20063;-77
2023/08/01 03:49:15;;;;;;;5.35;1.65;;;24.00;45.10;;;;;;6097346;29;20032;-78
2023/08/01 03:52:16;;;;;;;5.30;1.75;;;23.90;45.10;;;;;;6113853;29;20397;-77
2023/08/01 03:55:17;;;;;;;5.95;2.00;;;23.90;45.30;;;;;;6113068;29;20091;-78
2023/08/01 03:58:18;;;;;;;6.30;2.28;;;23.30;45.30;;;;;;6096579;29;20331;-77
2023/08/01 04:01:19;;;;;;;5.30;1.92;;;23.70;45.40;;;;;;6110451;29;20504;-78
2023/08/01 04:04:21;;;;;;;7.68;1.70;;;23.70;45.50;;;;;;6093771;29;20111;-78
2023/08/01 04:07:22;;;;;;;3.33;1.70;;;23.70;45.50;;;;;;6126472;29;20028;-78
2023/08/01 04:10:23;;;;;;;4.55;1.98;;;23.60;45.60;;;;;;6111659;29;20028;-78
2023/08/01 04:13:24;;;;;;;4.50;1.90;;;23.70;45.80;;;;;;6112501;29;20031;-78
2023/08/01 04:16:25;;;;;;;3.03;1.60;;;23.60;45.90;;;;;;6129753;29;20409;-79
2023/08/01 04:19:25;;;;;;;2.38;1.55;;;23.60;45.90;;;;;;6129526;29;20066;-78
2023/08/01 04:22:26;;;;;;;4.03;1.80;;;23.60;45.90;;;;;;6129048;29;20090;-77
2023/08/01 04:25:27;;;;;;;3.75;1.70;;;23.60;46.00;;;;;;6111654;29;20058;-79
2023/08/01 04:28:28;;;;;;;6.43;1.77;;;23.60;46.10;;;;;;6130120;29;20031;-77
2023/08/01 04:31:29;;;;;;;4.22;2.10;;;23.60;46.20;;;;;;6128012;29;20447;-80
2023/08/01 04:34:29;;;;;;;6.25;2.05;;;23.60;46.30;;;;;;6129786;29;20504;-77
2023/08/01 04:37:30;;;;;;;5.80;1.50;;;23.60;46.60;;;;;;6128977;29;20377;-79
2023/08/01 04:40:31;;;;;;;3.15;1.85;;;23.50;46.60;;;;;;6112076;29;20050;-77
2023/08/01 04:43:32;;;;;;;3.92;1.70;;;23.60;46.60;;;;;;6111499;29;20042;-77
2023/08/01 04:46:33;;;;;;;4.40;2.00;;;23.60;46.60;;;;;;6096607;29;20036;-78
2023/08/01 04:49:33;;;;;;;3.80;1.73;;;23.60;46.60;;;;;;6127148;29;20062;-79
2023/08/01 04:52:34;;;;;;;3.67;1.60;;;23.60;46.60;;;;;;6113589;29;20047;-77
2023/08/01 04:55:35;;;;;;;4.75;2.20;;;23.60;46.90;;;;;;6126763;29;20032;-76
2023/08/01 04:58:36;;;;;;;4.55;1.95;;;23.70;47.20;;;;;;6126351;29;20481;-76
2023/08/01 05:01:37;;;;;;;4.18;1.70;;;23.70;47.30;;;;;;6126690;29;20023;-77
2023/08/01 05:04:38;;;;;;;3.22;1.90;;;23.70;47.30;;;;;;6127229;29;20543;-76
2023/08/01 05:07:38;;;;;;;3.13;1.58;;;23.70;47.10;;;;;;6124978;29;20036;-76
2023/08/01 05:10:39;;;;;;;8.63;2.47;;;23.70;47.10;;;;;;6127930;29;20571;-78
2023/08/01 05:13:40;;;;;;;2.90;1.85;;;23.70;47.20;;;;;;6126288;29;20118;-77
2023/08/01 05:16:41;;;;;;;10.05;2.22;;;23.70;47.20;;;;;;6126160;29;20078;-76
2023/08/01 05:19:41;;;;;;;4.10;2.00;;;23.70;47.20;;;;;;6111340;29;20119;-77
2023/08/01 05:22:42;;;;;;;9.05;2.17;;;23.70;47.30;;;;;;6129268;29;20135;-77
2023/08/01 05:25:43;;;;;;;2.50;1.80;;;23.30;47.30;;;;;;6109562;29;20078;-78
2023/08/01 05:28:44;;;;;;;6.70;2.15;;;23.70;47.70;;;;;;6110204;29;20083;-78
2023/08/01 05:31:45;;;;;;;4.25;1.88;;;23.70;47.60;;;;;;6126379;29;20574;-76
2023/08/01 05:34:45;;;;;;;8.70;2.08;;;23.70;47.20;;;;;;6126148;29;20066;-78
2023/08/01 05:37:46;;;;;;;3.67;1.73;;;23.70;46.90;;;;;;6108526;29;20051;-77
2023/08/01 05:40:47;;;;;;;9.07;2.72;;;24.00;46.80;;;;;;6125460;29;20078;-77
2023/08/01 05:43:49;;;;;;;8.45;2.08;;;23.90;46.40;;;;;;6126640;29;20047;-77
2023/08/01 05:46:50;;;;;;;4.07;2.00;;;23.90;46.30;;;;;;6126460;29;20365;-76
2023/08/01 05:49:51;;;;;;;8.25;1.95;;;23.90;46.10;;;;;;6108045;29;20032;-78
2023/08/01 05:52:51;;;;;;;3.55;1.80;;;23.90;46.10;;;;;;6106329;29;20066;-76
2023/08/01 05:55:52;;;;;;;5.25;1.73;;;23.90;46.00;;;;;;6125444;29;20422;-76
2023/08/01 05:58:53;;;;;;;4.15;2.33;;;24.00;46.10;;;;;;6122741;29;20078;-75
2023/08/01 06:01:54;;;;;;;4.90;2.28;;;24.20;45.30;;;;;;6106732;29;20178;-78
2023/08/01 06:04:55;;;;;;;15.02;2.35;;;24.20;45.70;;;;;;6108429;29;20227;-78
2023/08/01 06:07:55;;;;;;;4.55;1.85;;;24.40;45.50;;;;;;6125651;29;20035;-77
2023/08/01 06:10:56;;;;;;;8.20;1.90;;;24.50;45.10;;;;;;6125343;29;20100;-78
2023/08/01 06:13:57;;;;;;;3.78;2.20;;;24.60;44.80;;;;;;6106889;29;20036;-76
2023/08/01 06:16:58;;;;;;;6.25;2.28;;;24.50;44.70;;;;;;6122976;29;20128;-77
2023/08/01 06:19:58;;;;;;;6.28;1.85;;;24.60;44.80;;;;;;6125089;29;20422;-78
2023/08/01 06:22:59;;;;;;;6.50;1.55;;;24.70;44.80;;;;;;6125118;29;20027;-76
2023/08/01 06:26:00;;;;;;;5.68;2.00;;;24.70;44.90;;;;;;6139507;29;20043;-77
2023/08/01 06:29:01;;;;;;;5.43;2.17;;;24.70;45.00;;;;;;6123066;29;20110;-76
2023/08/01 06:32:02;;;;;;;4.00;2.20;;;24.70;45.10;;;;;;6123405;29;20114;-76
2023/08/01 06:35:03;;;;;;;10.43;2.38;;;24.70;45.30;;;;;;6123445;29;20059;-77
2023/08/01 06:38:03;;;;;;;6.18;2.45;;;24.70;45.30;;;;;;6123083;29;20070;-77
2023/08/01 06:41:04;;;;;;;7.97;2.30;;;24.80;45.10;;;;;;6107466;29;20039;-77
2023/08/01 06:44:05;;;;;;;4.32;2.13;;;24.90;45.10;;;;;;6123172;29;20032;-79
2023/08/01 06:47:06;;;;;;;4.70;2.30;;;24.90;44.90;;;;;;6124841;29;20764;-77
2023/08/01 06:50:07;;;;;;;7.78;2.58;;;24.90;44.80;;;;;;6123692;29;20032;-76
2023/08/01 06:53:08;;;;;;;7.38;2.35;;;24.90;44.70;;;;;;6123277;29;20054;-77
2023/08/01 06:56:09;;;;;;;5.93;2.30;;;25.00;44.60;;;;;;6122493;29;20364;-77
2023/08/01 06:59:09;;;;;;;3.45;1.92;;;25.10;44.40;;;;;;6122643;29;20073;-76
2023/08/01 07:02:10;;;;;;;3.88;2.10;;;25.20;44.10;;;;;;6106430;29;20115;-76
2023/08/01 07:05:11;;;;;;;16.33;2.00;;;25.30;43.90;;;;;;6121658;29;20042;-76
2023/08/01 07:08:12;;;;;;;5.78;1.90;;;25.40;43.70;;;;;;6121124;29;20338;-77
2023/08/01 07:11:13;;;;;;;4.90;2.47;;;25.50;43.50;;;;;;6092772;29;20028;-77
2023/08/01 07:14:14;;;;;;;5.40;2.05;;;25.50;43.40;;;;;;6124436;29;20135;-76
2023/08/01 07:17:14;;;;;;;3.17;1.90;;;25.60;43.30;;;;;;6123670;29;20035;-77
2023/08/01 07:20:15;;;;;;;4.18;2.10;;;25.60;43.30;;;;;;6106382;29;20050;-76
2023/08/01 07:23:16;;;;;;;4.38;2.03;;;25.50;43.20;;;;;;6105905;29;20097;-76
2023/08/01 07:26:17;;;;;;;6.13;1.77;;;25.50;43.20;;;;;;6106345;29;20043;-77
2023/08/01 07:29:17;;;;;;;3.80;2.10;;;25.40;43.50;;;;;;6108721;29;20103;-77
2023/08/01 07:32:18;;;;;;;9.50;2.70;;;25.50;43.90;;;;;;6125620;29;20107;-78
2023/08/01 07:35:19;;;;;;;12.20;2.50;;;25.50;44.10;;;;;;6105765;29;20032;-75
2023/08/01 07:38:20;;;;;;;4.60;2.15;;;25.60;44.40;;;;;;6104036;29;20134;-76
2023/08/01 07:41:21;;;;;;;6.65;2.40;;;25.70;44.50;;;;;;6121790;29;20198;-77
2023/08/01 07:44:22;;;;;;;11.13;2.67;;;25.90;44.40;;;;;;6121486;29;20039;-76
2023/08/01 07:47:23;;;;;;;14.63;2.38;;;25.90;44.10;;;;;;6104173;29;20039;-77
2023/08/01 07:50:26;;;;;;;6.35;2.50;;;25.90;44.10;;;;;;6122243;29;20028;-78
2023/08/01 07:53:29;;;;;;;11.90;2.33;;;25.80;44.10;;;;;;6106344;29;20039;-78
2023/08/01 07:56:30;;;;;;;5.63;2.63;;;25.80;44.20;;;;;;6123569;29;20035;-78
2023/08/01 07:59:31;;;;;;;10.02;2.30;;;25.80;44.30;;;;;;6105558;29;20035;-76
2023/08/01 08:02:31;;;;;;;7.13;2.70;;;25.90;44.30;;;;;;6123238;29;20031;-79
2023/08/01 08:05:32;;;;;;;8.60;2.83;;;25.80;44.30;;;;;;6095786;29;20032;-77
2023/08/01 08:08:33;;;;;;;7.25;2.50;;;25.90;44.30;;;;;;6098066;29;20028;-76
2023/08/01 08:11:34;;;;;;;3.10;2.10;;;26.00;44.10;;;;;;6102550;29;20058;-78
2023/08/01 08:14:35;;;;;;;6.43;2.63;;;26.00;43.90;;;;;;6108109;29;20040;-78
2023/08/01 08:17:36;;;;;;;12.27;2.55;;;26.00;44.10;;;;;;6110621;29;20048;-77
2023/08/01 08:20:44;;;;;;;4.95;2.30;;;26.00;44.00;;;;;;6111131;29;20061;-77
2023/08/01 08:23:45;;;;;;;11.27;2.80;;;26.10;44.00;;;;;;6127591;29;20036;-77
2023/08/01 08:26:46;;;;;;;6.80;2.58;;;26.30;44.00;;;;;;6126948;29;20119;-77
2023/08/01 08:29:47;;;;;;;3.83;2.45;;;26.30;44.00;;;;;;6128027;29;20496;-77
2023/08/01 08:32:48;;;;;;;8.38;2.58;;;26.30;44.00;;;;;;6094533;29;20032;-78
2023/08/01 08:35:49;;;;;;;8.63;2.35;;;26.30;43.90;;;;;;6110952;29;20447;-78
2023/08/01 08:38:50;;;;;;;10.23;2.30;;;26.40;43.80;;;;;;6108301;29;20150;-78
2023/08/01 08:41:52;;;;;;;13.98;3.10;;;26.40;43.70;;;;;;6127113;29;20189;-77
2023/08/01 08:44:56;;;;;;;9.55;2.65;;;26.30;43.60;;;;;;6093842;29;20023;-76
2023/08/01 08:48:00;;;;;;;14.05;2.50;;;26.20;43.70;;;;;;6093681;29;20445;-77
2023/08/01 08:51:03;;;;;;;4.45;2.20;;;26.10;43.90;;;;;;6127664;29;20032;-77
2023/08/01 08:54:05;;;;;;;6.40;2.67;;;26.10;44.00;;;;;;6110468;29;20364;-77
2023/08/01 08:57:06;;;;;;;4.53;2.40;;;26.30;44.00;;;;;;6126586;29;20094;-79
2023/08/01 09:00:08;;;;;;;10.23;2.50;;;26.50;43.50;;;;;;6126869;29;20111;-78
2023/08/01 09:03:09;;;;;;;8.05;2.83;;;26.80;43.00;;;;;;6110373;29;20036;-78
2023/08/01 09:06:16;;;;;;;5.65;2.25;;;26.90;42.50;;;;;;6109925;29;20032;-78
2023/08/01 09:09:18;;;;;;;6.57;2.20;;;27.10;42.20;;;;;;6093884;29;20031;-76
2023/08/01 09:12:19;;;;;;;6.28;2.42;;;27.20;42.00;;;;;;6111130;29;20043;-78
2023/08/01 09:15:20;;;;;;;4.72;2.63;;;27.40;41.80;;;;;;6127453;29;20477;-79
2023/08/01 09:18:21;;;;;;;8.10;2.13;;;27.60;41.70;;;;;;6128112;29;20036;-77
2023/08/01 09:21:22;;;;;;;15.48;2.45;;;27.70;41.80;;;;;;6113151;29;20036;-79
2023/08/01 09:24:23;;;;;;;8.35;2.20;;;27.80;41.30;;;;;;6130797;29;20103;-79
2023/08/01 09:27:33;;;;;;;4.13;2.60;;;27.70;41.80;;;;;;6128905;29;20488;-77
2023/08/01 09:30:34;;;;;;;7.80;2.15;;;27.60;41.90;;;;;;6116312;29;20047;-79
2023/08/01 09:33:41;;;;;;;12.13;2.25;;;27.50;41.90;;;;;;6130454;29;20035;-79
2023/08/01 09:36:42;;;;;;;6.07;2.38;;;27.40;42.10;;;;;;6128200;29;20042;-79
2023/08/01 09:39:46;;;;;;;5.07;2.70;;;27.30;42.50;;;;;;6129160;29;20027;-77
2023/08/01 09:42:47;;;;;;;7.25;2.70;;;27.20;42.90;;;;;;6121405;29;20460;-78
2023/08/01 09:45:54;;;;;;;7.93;2.80;;;27.10;43.50;;;;;;6128841;29;20039;-79
2023/08/01 09:48:54;;;;;;;9.93;2.58;;;27.00;44.00;;;;;;6129016;29;20102;-78
2023/08/01 09:51:56;;;;;;;6.60;3.25;;;27.00;44.60;;;;;;6129266;29;20050;-77
2023/08/01 09:54:57;;;;;;;6.28;2.97;;;27.10;45.00;;;;;;6127870;29;20058;-77
2023/08/01 09:57:59;;;;;;;8.82;2.78;;;27.20;45.10;;;;;;6107390;29;20379;-78
2023/08/01 10:01:03;;;;;;;11.27;4.15;;;27.20;45.20;;;;;;6086132;29;20032;-77
2023/08/01 10:04:05;;;;;;;6.32;2.72;;;27.30;45.30;;;;;;6089836;29;20035;-78
2023/08/01 10:07:11;;;;;;;5.07;2.47;;;27.30;45.20;;;;;;6109186;29;20073;-78
2023/08/01 10:10:12;;;;;;;6.43;2.90;;;27.30;45.40;;;;;;6109718;29;20035;-78
2023/08/01 10:13:14;;;;;;;10.15;3.15;;;27.40;45.40;;;;;;6127533;29;20084;-77
2023/08/01 10:16:15;;;;;;;9.15;3.17;;;27.50;45.00;;;;;;6109681;29;20027;-78
2023/08/01 10:19:17;;;;;;;22.20;3.45;;;27.60;44.50;;;;;;6109457;29;20110;-79
2023/08/01 10:22:19;;;;;;;11.18;3.17;;;27.80;44.30;;;;;;6109367;29;20087;-78
2023/08/01 10:25:21;;;;;;;14.82;2.88;;;28.00;44.20;;;;;;6126562;29;20024;-77
2023/08/01 10:28:39;;;;;;;16.52;3.22;;;28.20;44.10;;;;;;6110092;29;20186;-78
2023/08/01 10:31:53;;;;;;;4.90;2.53;;;28.30;43.80;;;;;;6108904;29;20099;-78
2023/08/01 10:34:54;;;;;;;8.88;3.20;;;28.40;43.80;;;;;;6125252;29;20477;-77
2023/08/01 10:38:04;;;;;;;6.00;2.72;;;28.50;43.70;;;;;;6107437;29;20085;-76
2023/08/01 10:41:05;;;;;;;5.30;2.50;;;28.70;43.90;;;;;;6125873;29;20487;-79
2023/08/01 10:44:11;;;;;;;6.38;2.80;;;28.70;43.50;;;;;;6103508;29;20044;-79
2023/08/01 10:47:12;;;;;;;13.80;5.82;;;28.80;43.40;;;;;;6083545;29;20127;-77
2023/08/01 10:50:15;;;;;;;7.50;3.35;;;29.00;43.10;;;;;;6084624;29;20091;-79
2023/08/01 10:53:17;;;;;;;9.10;2.75;;;29.20;42.80;;;;;;6112637;29;20086;-77
2023/08/01 10:56:19;;;;;;;6.63;2.53;;;29.40;42.70;;;;;;6107782;29;20140;-78
2023/08/01 10:59:21;;;;;;;6.60;2.63;;;29.50;42.30;;;;;;6108208;29;20031;-79
2023/08/01 11:02:27;;;;;;;5.68;2.72;;;29.60;42.00;;;;;;6123624;29;20035;-79
2023/08/01 11:05:29;;;;;;;5.47;2.67;;;29.80;41.60;;;;;;6108486;29;20470;-79
2023/08/01 11:08:38;;;;;;;5.90;2.50;;;29.90;41.30;;;;;;6108506;29;20031;-78
2023/08/01 11:11:39;;;;;;;8.27;2.85;;;30.10;40.90;;;;;;6108706;29;20031;-78
2023/08/01 11:14:39;;;;;;;10.75;2.42;;;30.30;40.40;;;;;;6108515;29;20083;-78
2023/08/01 11:17:42;;;;;;;4.32;2.22;;;30.50;39.60;;;;;;6107945;29;20114;-77
2023/08/01 11:20:43;;;;;;;4.03;2.17;;;30.60;38.90;;;;;;6106712;29;20067;-78
2023/08/01 11:23:44;;;;;;;5.38;2.72;;;30.80;38.30;;;;;;6099947;29;20548;-78
2023/08/01 11:26:48;;;;;;;7.93;2.45;;;31.00;37.60;;;;;;6068106;29;20080;-77
2023/08/01 11:29:49;;;;;;;6.55;3.08;;;31.30;36.90;;;;;;6083278;29;20028;-78
2023/08/01 11:32:49;;;;;;;12.30;3.20;;;31.60;36.30;;;;;;6100924;29;20130;-77
2023/08/01 11:35:59;;;;;;;6.63;2.50;;;32.00;35.60;;;;;;6083769;29;20127;-79
2023/08/01 11:39:01;;;;;;;5.28;2.35;;;32.50;34.80;;;;;;6102952;29;20036;-76
2023/08/01 11:42:03;;;;;;;3.85;1.92;;;32.60;33.80;;;;;;6101531;29;20043;-77
2023/08/01 11:45:11;;;;;;;7.40;2.42;;;32.90;33.40;;;;;;6099897;29;20028;-78
2023/08/01 11:48:13;;;;;;;4.63;2.22;;;33.20;32.40;;;;;;6084190;29;20063;-77
2023/08/01 11:51:14;;;;;;;3.53;2.03;;;33.40;31.80;;;;;;6072188;29;20039;-78
2023/08/01 11:54:17;;;;;;;5.63;2.00;;;33.70;31.70;;;;;;6107178;29;20031;-79
2023/08/01 11:57:18;;;;;;;6.13;2.35;;;34.00;30.80;;;;;;6114264;29;20150;-79
2023/08/01 12:00:27;;;;;;;6.22;2.55;;;33.80;30.70;;;;;;6111906;29;20039;-78
2023/08/01 12:03:28;;;;;;;6.03;2.83;;;33.80;31.00;;;;;;6111835;29;20098;-77
2023/08/01 12:06:32;;;;;;;4.00;2.47;;;33.80;30.90;;;;;;6128146;29;20031;-78
2023/08/01 12:09:33;;;;;;;7.30;2.30;;;33.90;30.90;;;;;;6113498;29;20479;-79
2023/08/01 12:12:49;;;;;;;6.03;2.25;;;33.80;31.20;;;;;;6129259;29;20036;-78
2023/08/01 12:15:51;;;;;;;2.63;2.08;;;33.60;31.00;;;;;;6113295;29;20032;-80
2023/08/01 12:18:52;;;;;;;11.10;2.58;;;33.70;30.80;;;;;;6130717;29;20059;-79
2023/08/01 12:21:53;;;;;;;6.90;2.10;;;33.60;30.80;;;;;;6114672;29;20588;-78
2023/08/01 12:24:54;;;;;;;4.40;1.95;;;33.60;31.00;;;;;;6112779;29;20043;-78
2023/08/01 12:27:55;;;;;;;4.13;2.00;;;33.50;31.00;;;;;;6112643;29;20103;-77
2023/08/01 12:30:58;;;;;;;4.35;2.03;;;33.50;30.80;;;;;;6129802;29;20071;-78
2023/08/01 12:33:59;;;;;;;10.82;1.80;;;33.80;30.70;;;;;;6111780;29;20059;-77
2023/08/01 12:37:00;;;;;;;4.35;1.98;;;34.20;30.10;;;;;;6111271;29;20119;-78
2023/08/01 12:40:00;;;;;;;3.38;1.77;;;34.60;29.80;;;;;;6097629;29;20110;-79
2023/08/01 12:43:02;;;;;;;3.42;1.90;;;34.70;29.50;;;;;;6118892;29;20367;-77
2023/08/01 12:46:03;;;;;;;5.57;2.20;;;34.70;29.40;;;;;;6106938;29;20036;-77
2023/08/01 12:49:04;;;;;;;6.25;1.80;;;34.50;29.50;;;;;;6112804;29;20157;-76
2023/08/01 12:52:05;;;;;;;3.05;1.40;;;34.50;29.60;;;;;;6112060;29;20047;-78
2023/08/01 12:55:06;;;;;;;5.22;1.73;;;35.00;29.10;;;;;;6128617;29;20484;-77
2023/08/01 12:58:08;;;;;;;3.40;1.70;;;35.60;28.60;;;;;;6110803;29;20066;-78
2023/08/01 13:01:09;;;;;;;4.40;1.60;;;36.20;28.50;;;;;;6127951;29;20033;-78
2023/08/01 13:04:09;;;;;;;2.50;1.42;;;36.50;27.60;;;;;;6110134;29;20338;-78
2023/08/01 13:07:10;;;;;;;2.65;1.60;;;37.60;26.70;;;;;;6110610;29;20102;-77
2023/08/01 13:10:11;;;;;;;3.67;1.60;;;38.70;25.60;;;;;;6112209;29;20093;-78
2023/08/01 13:13:12;;;;;;;2.55;1.10;;;39.80;24.80;;;;;;6131257;29;20032;-78
2023/08/01 13:16:13;;;;;;;2.63;1.40;;;40.30;24.20;;;;;;6130971;29;20031;-79
2023/08/01 13:19:14;;;;;;;4.38;2.05;;;41.00;23.80;;;;;;6113017;29;20035;-78
2023/08/01 13:22:15;;;;;;;2.47;1.55;;;41.60;23.10;;;;;;6088232;29;20039;-79
2023/08/01 13:25:16;;;;;;;3.08;1.73;;;42.10;22.70;;;;;;6127245;29;20036;-79
2023/08/01 13:28:17;;;;;;;2.10;1.30;;;42.70;22.30;;;;;;6129426;29;20049;-79
2023/08/01 13:31:18;;;;;;;3.50;1.52;;;43.60;21.50;;;;;;6112980;29;20032;-79
2023/08/01 13:34:19;;;;;;;2.00;1.30;;;44.60;20.90;;;;;;6115270;29;20044;-77
2023/08/01 13:37:20;;;;;;;1.52;1.35;;;45.20;20.00;;;;;;6112295;29;20039;-79
2023/08/01 13:40:20;;;;;;;2.55;0.90;;;45.50;19.70;;;;;;6129426;29;20031;-78
2023/08/01 13:43:21;;;;;;;1.92;1.20;;;45.80;19.30;;;;;;6128442;29;20028;-78
2023/08/01 13:46:22;;;;;;;1.77;1.08;;;46.10;18.80;;;;;;6127759;29;20032;-80
2023/08/01 13:49:23;;;;;;;1.08;0.90;;;46.30;18.60;;;;;;6129472;29;20516;-80
2023/08/01 13:52:23;;;;;;;1.45;1.13;;;46.30;18.40;;;;;;6128391;29;20032;-77
2023/08/01 13:55:25;;;;;;;1.73;1.02;;;45.30;18.70;;;;;;6126589;29;20043;-79
2023/08/01 13:58:25;;;;;;;4.07;1.27;;;43.70;19.60;;;;;;6128981;29;20051;-78
2023/08/01 14:01:26;;;;;;;2.67;1.25;;;42.30;20.50;;;;;;6140569;29;20047;-79
2023/08/01 14:04:27;;;;;;;2.13;1.10;;;42.00;20.90;;;;;;6116620;29;20027;-76
2023/08/01 14:07:28;;;;;;;2.58;1.20;;;42.90;20.30;;;;;;6128257;29;20425;-78
2023/08/01 14:10:29;;;;;;;2.25;1.23;;;44.20;19.40;;;;;;6125950;29;20059;-78
2023/08/01 14:13:30;;;;;;;2.42;1.55;;;45.20;18.50;;;;;;6108343;29;20134;-79
2023/08/01 14:16:31;;;;;;;3.50;1.60;;;45.80;18.20;;;;;;6107747;29;20515;-78
2023/08/01 14:19:32;;;;;;;1.35;1.10;;;45.60;17.90;;;;;;6126989;29;20035;-78
2023/08/01 14:22:32;;;;;;;1.92;1.30;;;45.30;17.90;;;;;;6108445;29;20393;-77
2023/08/01 14:25:33;;;;;;;1.63;1.02;;;44.20;18.40;;;;;;6108360;29;20122;-78
2023/08/01 14:28:34;;;;;;;1.50;1.30;;;43.20;19.20;;;;;;6108441;29;20099;-78
2023/08/01 14:31:35;;;;;;;1.90;1.23;;;42.40;19.60;;;;;;6126982;29;20062;-78
2023/08/01 14:34:35;;;;;;;2.45;1.48;;;42.00;20.10;;;;;;6109456;29;20237;-77
2023/08/01 14:37:36;;;;;;;2.53;1.40;;;42.10;20.20;;;;;;6126675;29;20071;-78
2023/08/01 14:40:39;;;;;;;2.45;1.42;;;42.50;20.20;;;;;;6127154;29;20044;-79
2023/08/01 14:43:39;;;;;;;2.72;1.23;;;43.30;19.80;;;;;;6109764;29;20054;-76
2023/08/01 14:46:40;;;;;;;3.90;1.20;;;44.10;19.40;;;;;;6125804;29;20039;-78
2023/08/01 14:49:44;;;;;;;4.90;1.80;;;44.60;19.10;;;;;;6126454;29;20446;-78
2023/08/01 14:52:45;;;;;;;1.65;1.00;;;44.40;19.00;;;;;;6125527;29;20150;-78
2023/08/01 14:55:46;;;;;;;2.95;1.55;;;43.90;19.30;;;;;;6107759;29;20065;-77
2023/08/01 14:58:47;;;;;;;1.67;1.40;;;43.20;19.70;;;;;;6125290;29;20163;-77
2023/08/01 15:01:47;;;;;;;1.63;1.10;;;42.50;20.20;;;;;;6107379;29;20047;-79
2023/08/01 15:04:55;;;;;;;1.48;1.13;;;41.90;20.70;;;;;;6108100;29;20475;-77
2023/08/01 15:07:56;;;;;;;2.95;1.35;;;41.20;21.20;;;;;;6124207;29;20080;-77
2023/08/01 15:10:56;;;;;;;2.95;1.58;;;40.40;21.60;;;;;;6122873;29;20063;-77
2023/08/01 15:13:57;;;;;;;5.90;1.42;;;39.60;22.30;;;;;;6107148;29;20051;-77
2023/08/01 15:16:58;;;;;;;4.38;1.77;;;38.80;22.90;;;;;;6124145;29;20035;-76
2023/08/01 15:19:59;;;;;;;2.03;1.60;;;38.00;24.00;;;;;;6126193;29;20059;-77
2023/08/01 15:22:59;;;;;;;4.93;1.38;;;37.30;24.10;;;;;;6124391;29;20524;-77
2023/08/01 15:26:00;;;;;;;2.78;1.15;;;36.80;24.70;;;;;;6109492;29;20028;-79
2023/08/01 15:29:01;;;;;;;8.00;1.42;;;36.40;25.10;;;;;;6129527;29;20450;-78
2023/08/01 15:32:02;;;;;;;3.45;1.38;;;36.90;25.00;;;;;;6112904;29;20531;-79
2023/08/01 15:35:03;;;;;;;1.73;1.15;;;38.50;24.00;;;;;;6130096;29;20323;-78
2023/08/01 15:38:04;;;;;;;3.78;1.27;;;39.80;22.70;;;;;;6114496;29;20075;-78
2023/08/01 15:41:09;;;;;;;2.10;1.17;;;40.40;22.10;;;;;;6130166;29;20067;-80
2023/08/01 15:44:09;;;;;;;1.55;1.08;;;40.80;21.70;;;;;;6090948;29;20063;-78